createdAt,value
2022-10-11T00:02:21.687Z,1222.60
2022-10-11T00:07:21.684Z,1222.60
2022-10-11T00:12:21.725Z,1223.70
2022-10-11T00:17:21.817Z,1223.70
2022-10-11T00:22:21.714Z,1224.20
2022-10-11T00:27:21.816Z,1224.20
2022-10-11T00:32:21.692Z,1210.60
2022-10-11T00:37:21.791Z,1210.60
2022-10-11T00:42:21.720Z,1215.20
2022-10-11T00:47:21.707Z,1215.20
2022-10-11T00:52:21.744Z,1213.90
2022-10-11T00:57:22.034Z,1213.90
2022-10-11T01:02:21.711Z,1225.40
2022-10-11T01:07:21.999Z,1225.40
2022-10-11T01:17:22.228Z,1222.70
2022-10-11T01:22:21.801Z,1222.40
2022-10-11T01:27:21.756Z,1222.40
2022-10-11T01:32:21.751Z,1223.10
2022-10-11T01:37:21.718Z,1223.10
2022-10-11T01:42:21.784Z,1219.70
2022-10-11T01:47:21.755Z,1219.70
2022-10-11T01:52:21.772Z,1209.20
2022-10-11T01:57:21.751Z,1209.20
2022-10-11T02:02:21.744Z,1205.60
2022-10-11T02:07:21.823Z,1205.60
2022-10-11T02:12:21.716Z,1206.00
2022-10-11T02:17:21.795Z,1206.00
2022-10-11T02:22:21.757Z,1202.30
2022-10-11T02:27:22.073Z,1202.30
2022-10-11T02:32:21.775Z,1189.70
2022-10-11T02:37:21.774Z,1189.70
2022-10-11T02:42:21.782Z,1177.90
2022-10-11T02:47:21.773Z,1177.90
2022-10-11T02:52:21.748Z,1172.30
2022-10-11T02:57:21.983Z,1172.30
2022-10-11T03:02:21.859Z,1172.50
2022-10-11T03:07:21.962Z,1172.50
2022-10-11T03:12:21.750Z,1155.40
2022-10-11T03:17:36.106Z,1155.40
2022-10-11T03:22:21.784Z,1108.80
2022-10-11T03:27:21.905Z,1108.80
2022-10-11T03:32:21.746Z,1140.70
2022-10-11T03:37:21.866Z,1140.70
2022-10-11T03:42:21.761Z,1148.00
2022-10-11T03:47:21.833Z,1148.00
2022-10-11T03:52:21.784Z,1157.80
2022-10-11T03:57:21.789Z,1157.80
2022-10-11T04:02:21.800Z,1168.80
2022-10-11T04:07:21.838Z,1168.80
2022-10-11T04:12:21.946Z,1156.40
2022-10-11T04:17:22.058Z,1156.40
2022-10-11T04:22:21.796Z,1147.20
2022-10-11T04:27:22.017Z,1147.20
2022-10-11T04:32:21.804Z,1161.80
2022-10-11T04:37:21.996Z,1161.80
2022-10-11T04:42:21.793Z,1174.80
2022-10-11T04:47:21.828Z,1174.80
2022-10-11T04:52:25.566Z,1162.80
2022-10-11T04:57:21.842Z,1162.80
2022-10-11T05:07:21.930Z,1172.70
2022-10-11T05:12:21.806Z,1182.70
2022-10-11T05:17:21.853Z,1182.70
2022-10-11T05:22:21.835Z,1189.20
2022-10-11T05:27:22.168Z,1189.20
2022-10-11T05:32:23.740Z,1200.60
2022-10-11T05:37:21.837Z,1200.60
2022-10-11T05:42:21.827Z,1213.00
2022-10-11T05:47:21.862Z,1213.00
2022-10-11T05:52:21.824Z,1226.50
2022-10-11T05:57:21.843Z,1226.50
2022-10-11T06:02:21.876Z,1244.30
2022-10-11T06:07:22.065Z,1244.30
2022-10-11T06:12:21.835Z,1241.90
2022-10-11T06:17:22.032Z,1241.90
2022-10-11T06:22:21.855Z,1239.40
2022-10-11T06:27:21.996Z,1239.40
2022-10-11T06:32:22.122Z,1263.40
2022-10-11T06:37:21.924Z,1263.40
2022-10-11T06:42:21.882Z,1274.50
2022-10-11T06:47:21.864Z,1274.50
2022-10-11T06:57:21.895Z,1253.40
2022-10-11T07:02:21.975Z,1296.50
2022-10-11T07:07:21.881Z,1296.50
2022-10-11T07:12:21.879Z,1161.00
2022-10-11T07:22:21.934Z,1146.50
2022-10-11T07:27:22.104Z,1146.50
2022-10-11T07:32:21.905Z,1172.40
2022-10-11T07:37:22.081Z,1172.40
2022-10-11T07:42:22.021Z,1166.90
2022-10-11T07:47:21.906Z,1166.90
2022-10-11T07:52:21.910Z,1174.20
2022-10-11T07:57:21.938Z,1174.20
2022-10-11T08:02:21.909Z,1197.90
2022-10-11T08:07:21.906Z,1197.90
2022-10-11T08:12:21.923Z,1207.90
2022-10-11T08:17:22.217Z,1207.90
2022-10-11T08:22:21.922Z,1245.00
2022-10-11T08:27:22.233Z,1245.00
2022-10-11T08:32:21.951Z,1280.80
2022-10-11T08:37:21.923Z,1280.80
2022-10-11T08:42:21.897Z,1317.20
2022-10-11T08:47:21.922Z,1317.20
2022-10-11T08:52:21.910Z,1340.10
2022-10-11T08:57:22.155Z,1340.10
2022-10-11T09:02:21.940Z,1363.20
2022-10-11T09:07:22.252Z,1363.20
2022-10-11T09:12:21.933Z,1390.40
2022-10-11T09:17:22.088Z,1390.40
2022-10-11T09:22:23.249Z,1389.40
2022-10-11T09:27:37.858Z,1389.40
2022-10-11T09:32:21.943Z,1373.40
2022-10-11T09:37:22.028Z,1373.40
2022-10-11T09:42:21.956Z,1370.80
2022-10-11T09:47:22.002Z,1370.80
2022-10-11T09:52:21.938Z,1385.80
2022-10-11T09:57:22.287Z,1385.80
2022-10-11T10:02:21.958Z,1381.70
2022-10-11T10:07:22.253Z,1381.70
2022-10-11T10:12:21.976Z,1401.50
2022-10-11T10:17:22.218Z,1401.50
2022-10-11T10:22:21.973Z,1383.00
2022-10-11T10:27:22.193Z,1383.00
2022-10-11T10:32:22.233Z,1379.50
2022-10-11T10:37:22.136Z,1379.50
2022-10-11T10:42:22.016Z,1388.10
2022-10-11T10:47:21.968Z,1388.10
2022-10-11T10:52:22.001Z,1406.40
2022-10-11T10:57:21.998Z,1406.40
2022-10-11T11:02:39.714Z,1392.70
2022-10-11T11:07:21.989Z,1392.70
2022-10-11T11:12:22.025Z,1374.80
2022-10-11T11:17:22.017Z,1374.80
2022-10-11T11:22:22.037Z,1379.70
2022-10-11T11:27:22.014Z,1379.70
2022-10-11T11:32:22.004Z,1361.50
2022-10-11T11:37:22.006Z,1361.50
2022-10-11T11:42:22.008Z,1359.30
2022-10-11T11:47:22.017Z,1359.30
2022-10-11T11:52:21.992Z,1350.90
2022-10-11T11:57:22.028Z,1350.90
2022-10-11T12:07:24.026Z,1346.00
2022-10-11T12:12:21.990Z,1356.00
2022-10-11T12:17:22.436Z,1356.00
2022-10-11T12:22:22.036Z,1363.00
2022-10-11T12:27:22.404Z,1363.00
2022-10-11T12:32:22.228Z,1347.20
2022-10-11T12:37:22.085Z,1347.20
2022-10-11T12:42:22.201Z,1350.70
2022-10-11T12:47:22.041Z,1350.70
2022-10-11T12:52:24.038Z,1342.20
2022-10-11T12:57:22.616Z,1342.20
2022-10-11T13:02:22.027Z,1355.80
2022-10-11T13:07:22.319Z,1355.80
2022-10-11T13:12:24.059Z,1356.20
2022-10-11T13:17:22.261Z,1356.20
2022-10-11T13:22:22.061Z,1354.50
2022-10-11T13:27:22.524Z,1354.50
2022-10-11T13:32:22.062Z,1352.10
2022-10-11T13:37:22.240Z,1352.10
2022-10-11T13:42:22.077Z,1349.50
2022-10-11T13:47:22.216Z,1349.50
2022-10-11T13:57:22.448Z,1349.00
2022-10-11T14:02:22.091Z,1344.40
2022-10-11T14:07:22.145Z,1344.40
2022-10-11T14:12:22.095Z,1341.00
2022-10-11T14:22:22.115Z,1320.40
2022-10-11T14:27:22.382Z,1320.40
2022-10-11T14:32:22.101Z,1334.00
2022-10-11T14:37:22.354Z,1334.00
2022-10-11T14:42:22.152Z,1336.40
2022-10-11T14:47:24.141Z,1336.40
2022-10-11T14:52:22.083Z,1333.20
2022-10-11T14:57:22.123Z,1333.20
2022-10-11T15:02:22.086Z,1352.30
2022-10-11T15:07:22.127Z,1352.30
2022-10-11T15:12:22.169Z,1366.00
2022-10-11T15:17:22.123Z,1366.00
2022-10-11T15:22:22.135Z,1375.60
2022-10-11T15:27:22.131Z,1375.60
2022-10-11T15:32:22.139Z,1344.20
2022-10-11T15:37:22.206Z,1344.20
2022-10-11T15:42:22.107Z,1326.90
2022-10-11T15:47:22.142Z,1326.90
2022-10-11T15:52:22.141Z,1326.90
2022-10-11T15:57:22.448Z,1338.10
2022-10-11T16:02:22.123Z,1338.10
2022-10-11T16:07:22.420Z,1353.70
2022-10-11T16:12:22.133Z,1353.70
2022-10-11T16:17:22.650Z,1352.10
2022-10-11T16:22:22.166Z,1352.10
2022-10-11T16:27:22.153Z,1353.60
2022-10-11T16:32:22.165Z,1353.60
2022-10-11T16:37:22.320Z,1358.00
2022-10-11T16:42:22.165Z,1358.00
2022-10-11T16:47:22.146Z,1334.90
2022-10-11T16:52:22.182Z,1334.90
2022-10-11T17:02:22.206Z,1329.80
2022-10-11T17:07:22.208Z,1334.40
2022-10-11T17:12:22.375Z,1334.40
2022-10-11T17:17:22.512Z,1327.10
2022-10-11T17:27:22.744Z,1325.30
2022-10-11T17:37:24.450Z,1328.90
2022-10-11T17:42:22.185Z,1328.90
2022-10-11T17:47:22.194Z,1325.10
2022-10-11T17:57:22.354Z,1319.90
2022-10-11T18:02:22.383Z,1319.90
2022-10-11T18:07:22.217Z,1317.30
2022-10-11T18:12:22.450Z,1317.30
2022-10-11T18:17:22.342Z,1313.50
2022-10-11T18:22:22.182Z,1313.50
2022-10-11T18:32:24.482Z,1310.30
2022-10-11T18:37:22.280Z,1311.70
2022-10-11T18:42:22.367Z,1311.70
2022-10-11T18:47:22.575Z,1302.30
2022-10-11T18:52:22.476Z,1302.30
2022-10-11T18:57:24.478Z,1314.40
2022-10-11T19:02:22.219Z,1314.40
2022-10-11T19:07:22.435Z,1314.90
2022-10-11T19:12:24.246Z,1314.90
2022-10-11T19:17:22.493Z,1298.10
2022-10-11T19:22:22.508Z,1298.10
2022-10-11T19:27:22.234Z,1294.80
2022-10-11T19:32:22.272Z,1294.80
2022-10-11T19:37:22.446Z,1290.20
2022-10-11T19:42:26.509Z,1290.20
2022-10-11T19:47:22.595Z,1292.40
2022-10-11T19:52:24.772Z,1292.40
2022-10-11T19:57:24.345Z,1290.90
2022-10-11T20:02:22.248Z,1290.90
2022-10-11T20:07:22.301Z,1288.20
2022-10-11T20:12:22.266Z,1288.20
2022-10-11T20:17:22.752Z,1287.90
2022-10-11T20:22:22.378Z,1287.90
2022-10-11T20:27:22.286Z,1298.10
2022-10-11T20:32:24.793Z,1298.10
2022-10-11T20:37:22.286Z,1301.00
2022-10-11T20:42:25.257Z,1301.00
2022-10-11T20:47:22.532Z,1313.80
2022-10-11T20:52:22.256Z,1313.80
2022-10-11T20:57:22.310Z,1289.60
2022-10-11T21:02:22.329Z,1289.60
2022-10-11T21:07:22.314Z,1288.30
2022-10-11T21:12:22.265Z,1288.30
2022-10-11T21:17:22.573Z,1310.80
2022-10-11T21:22:22.305Z,1310.80
2022-10-11T21:27:22.290Z,1318.30
2022-10-11T21:32:22.328Z,1318.30
2022-10-11T21:37:22.339Z,1297.70
2022-10-11T21:42:27.181Z,1297.70
2022-10-11T21:47:22.330Z,1289.30
2022-10-11T21:52:22.340Z,1289.30
2022-10-11T21:57:22.320Z,1281.70
2022-10-11T22:02:22.316Z,1281.70
2022-10-11T22:07:22.328Z,1275.10
2022-10-11T22:12:22.298Z,1275.10
2022-10-11T22:17:22.548Z,1282.80
2022-10-11T22:22:22.302Z,1282.80
2022-10-11T22:27:22.514Z,1280.80
2022-10-11T22:32:22.366Z,1280.80
2022-10-11T22:37:22.487Z,1276.70
2022-10-11T22:42:26.868Z,1276.70
2022-10-11T22:47:22.459Z,1283.10
2022-10-11T22:52:22.318Z,1283.10
2022-10-11T22:57:22.429Z,1270.40
2022-10-11T23:02:22.317Z,1270.40
2022-10-11T23:07:22.386Z,1312.20
2022-10-11T23:12:22.545Z,1312.20
2022-10-11T23:17:22.446Z,1244.40
2022-10-11T23:22:22.326Z,1244.40
2022-10-11T23:27:22.649Z,1218.90
2022-10-11T23:32:22.504Z,1218.90
2022-10-11T23:37:22.603Z,1214.60
2022-10-11T23:42:22.370Z,1214.60
2022-10-11T23:47:22.341Z,1231.50
2022-10-11T23:52:22.381Z,1231.50
2022-10-11T23:57:22.376Z,1240.10
